Time,TemperatureF,DewpointF,PressureIn,WindDirection,WindDirectionDegrees,WindSpeedMPH,WindSpeedGustMPH,Humidity,HourlyPrecipIn,Conditions,Clouds,dailyrainin,SoftwareType,DateUTC
2013-07-08 00:01:00,73.4,70.0,30.03,SSE,158,2.3,2.3,89,0.00,RA,,0.00,WeatherDisplay:10.37,2013-07-08 05:01:00,
2013-07-08 00:06:00,73.2,69.8,30.03,South,180,0.0,0.0,89,0.00,RA,,0.00,WeatherDisplay:10.37,2013-07-08 05:06:00,
2013-07-08 00:11:00,73.2,69.8,30.03,SE,135,1.1,0.0,89,0.00,CLR,,0.00,WeatherDisplay:10.37,2013-07-08 05:11:00,
2013-07-08 00:16:00,73.2,69.8,30.06,SSE,158,0.0,0.0,89,0.00,CLR,,0.00,WeatherDisplay:10.37,2013-07-08 05:16:00,
2013-07-08 00:21:00,73.2,69.8,30.06,North,0,2.3,0.0,89,0.00,CLR,,0.00,WeatherDisplay:10.37,2013-07-08 05:21:00,
2013-07-08 00:26:00,73.2,69.8,30.06,South,180,0.0,0.0,89,0.00,CLR,,0.00,WeatherDisplay:10.37,2013-07-08 05:26:00,
2013-07-08 00:31:00,73.0,69.6,30.03,SSE,158,0.0,0.0,89,0.00,CLR,,0.00,WeatherDisplay:10.37,2013-07-08 05:31:00,
2013-07-08 00:36:00,73.0,69.6,30.03,South,180,1.4,0.0,89,0.00,CLR,,0.00,WeatherDisplay:10.37,2013-07-08 05:36:00,
2013-07-08 00:41:00,73.0,69.9,30.03,South,180,1.1,0.0,90,0.00,CLR,,0.00,WeatherDisplay:10.37,2013-07-08 05:41:00,
2013-07-08 00:46:00,73.0,69.9,30.03,South,180,0.0,0.0,90,0.00,CLR,,0.00,WeatherDisplay:10.37,2013-07-08 05:46:00,
2013-07-08 00:51:00,72.9,69.8,30.03,South,180,0.0,0.0,90,0.00,CLR,,0.00,WeatherDisplay:10.37,2013-07-08 05:51:00,
2013-07-08 00:56:00,72.9,69.8,30.03,South,180,0.0,0.0,90,0.00,CLR,,0.00,WeatherDisplay:10.37,2013-07-08 05:56:00,
2013-07-08 01:01:00,72.9,69.8,30.03,South,180,0.0,0.0,90,0.00,CLR,,0.00,WeatherDisplay:10.37,2013-07-08 06:01:00,
2013-07-08 01:06:00,72.9,69.8,30.03,SE,135,2.3,2.3,90,0.00,CLR,,0.00,WeatherDisplay:10.37,2013-07-08 06:06:00,
2013-07-08 01:11:00,72.7,69.6,30.03,ESE,112,2.3,2.3,90,0.00,CLR,,0.00,WeatherDisplay:10.37,2013-07-08 06:11:00,
2013-07-08 01:16:00,72.7,69.6,30.03,SE,135,1.1,0.0,90,0.00,CLR,,0.00,WeatherDisplay:10.37,2013-07-08 06:16:00,
2013-07-08 01:21:00,72.7,69.6,30.03,SSE,158,2.3,2.3,90,0.00,CLR,,0.00,WeatherDisplay:10.37,2013-07-08 06:21:00,
2013-07-08 01:26:00,72.7,69.6,30.03,SSE,158,1.1,0.0,90,0.00,CLR,,0.00,WeatherDisplay:10.37,2013-07-08 06:26:00,
2013-07-08 01:31:00,72.7,69.6,30.03,SSE,158,1.1,0.0,90,0.00,CLR,,0.00,WeatherDisplay:10.37,2013-07-08 06:31:00,
2013-07-08 01:36:00,72.7,69.6,30.03,SSE,158,2.3,2.3,90,0.00,CLR,,0.00,WeatherDisplay:10.37,2013-07-08 06:36:00,
2013-07-08 01:41:00,72.5,69.4,30.03,ESE,112,2.0,2.0,90,0.00,CLR,,0.00,WeatherDisplay:10.37,2013-07-08 06:41:00,
2013-07-08 01:46:00,72.5,69.4,30.03,SSE,158,0.0,0.0,90,0.00,CLR,,0.00,WeatherDisplay:10.37,2013-07-08 06:46:00,
2013-07-08 01:51:00,72.5,69.4,30.03,SSE,158,3.3,0.0,90,0.00,CLR,,0.00,WeatherDisplay:10.37,2013-07-08 06:51:00,
2013-07-08 01:56:00,72.5,69.4,30.03,NW,315,1.1,0.0,90,0.00,CLR,,0.00,WeatherDisplay:10.37,2013-07-08 06:56:00,
2013-07-08 02:01:00,72.5,69.4,30.03,NW,315,0.0,0.0,90,0.00,CLR,,0.00,WeatherDisplay:10.37,2013-07-08 07:01:00,
2013-07-08 02:06:00,72.5,69.7,30.03,West,270,0.0,0.0,91,0.00,CLR,,0.00,WeatherDisplay:10.37,2013-07-08 07:06:00,
2013-07-08 02:11:00,72.5,69.7,30.03,SE,135,0.0,0.0,91,0.00,CLR,,0.00,WeatherDisplay:10.37,2013-07-08 07:11:00,
2013-07-08 02:16:00,72.5,69.7,30.03,SSE,158,0.0,0.0,91,0.00,CLR,,0.00,WeatherDisplay:10.37,2013-07-08 07:16:00,
2013-07-08 02:21:00,72.5,69.7,30.03,SSE,158,0.0,0.0,91,0.00,CLR,,0.00,WeatherDisplay:10.37,2013-07-08 07:21:00,
2013-07-08 02:26:00,72.5,69.7,30.03,SSE,158,0.0,0.0,91,0.00,CLR,,0.00,WeatherDisplay:10.37,2013-07-08 07:26:00,
2013-07-08 02:31:00,72.3,69.5,30.03,SSE,158,0.0,0.0,91,0.00,CLR,,0.00,WeatherDisplay:10.37,2013-07-08 07:31:00,
2013-07-08 02:36:00,72.3,69.5,30.03,SSE,158,0.0,0.0,91,0.00,CLR,,0.00,WeatherDisplay:10.37,2013-07-08 07:36:00,
2013-07-08 02:41:00,72.3,69.5,30.03,SSE,158,0.0,0.0,91,0.00,CLR,,0.00,WeatherDisplay:10.37,2013-07-08 07:41:00,
2013-07-08 02:46:00,72.1,69.4,30.03,SSE,158,0.0,0.0,91,0.00,CLR,,0.00,WeatherDisplay:10.37,2013-07-08 07:46:00,
2013-07-08 02:51:00,72.1,69.4,30.03,SSE,158,0.0,0.0,91,0.00,CLR,,0.00,WeatherDisplay:10.37,2013-07-08 07:51:00,
2013-07-08 02:57:00,72.1,69.4,30.03,SSE,158,0.0,0.0,91,0.00,CLR,,0.00,WeatherDisplay:10.37,2013-07-08 07:57:00,
2013-07-08 03:02:00,72.1,69.4,30.03,SSE,158,0.0,0.0,91,0.00,CLR,,0.00,WeatherDisplay:10.37,2013-07-08 08:02:00,
2013-07-08 03:07:00,72.0,69.2,30.03,SSE,158,0.0,0.0,91,0.00,CLR,,0.00,WeatherDisplay:10.37,2013-07-08 08:07:00,
2013-07-08 03:12:00,72.0,69.2,30.03,SSE,158,0.0,0.0,91,0.00,CLR,,0.00,WeatherDisplay:10.37,2013-07-08 08:12:00,
2013-07-08 03:17:00,71.8,69.0,30.03,SSE,158,0.0,0.0,91,0.00,CLR,,0.00,WeatherDisplay:10.37,2013-07-08 08:17:00,
2013-07-08 03:22:00,71.8,69.0,30.03,SSE,158,0.0,0.0,91,0.00,CLR,,0.00,WeatherDisplay:10.37,2013-07-08 08:22:00,
2013-07-08 03:27:00,71.6,68.8,30.03,SSE,158,0.0,0.0,91,0.00,CLR,,0.00,WeatherDisplay:10.37,2013-07-08 08:27:00,
2013-07-08 03:32:00,71.4,68.7,30.03,SSE,158,0.0,0.0,91,0.00,CLR,,0.00,WeatherDisplay:10.37,2013-07-08 08:32:00,
2013-07-08 03:37:00,71.4,68.3,30.03,SSE,158,0.0,0.0,90,0.00,CLR,,0.00,WeatherDisplay:10.37,2013-07-08 08:37:00,
2013-07-08 03:42:00,71.4,68.7,30.03,SSE,158,0.0,0.0,91,0.00,CLR,,0.00,WeatherDisplay:10.37,2013-07-08 08:42:00,
2013-07-08 03:47:00,71.4,68.7,30.03,North,0,0.0,0.0,91,0.00,CLR,,0.00,WeatherDisplay:10.37,2013-07-08 08:47:00,
2013-07-08 03:52:00,71.4,68.7,30.03,North,0,0.0,0.0,91,0.00,CLR,,0.00,WeatherDisplay:10.37,2013-07-08 08:52:00,
2013-07-08 03:57:00,71.4,69.0,30.03,North,0,0.0,0.0,92,0.00,CLR,,0.00,WeatherDisplay:10.37,2013-07-08 08:57:00,
2013-07-08 04:02:00,71.4,69.0,30.03,North,0,0.0,0.0,92,0.00,CLR,,0.00,WeatherDisplay:10.37,2013-07-08 09:02:00,
2013-07-08 04:07:00,71.4,69.0,30.03,North,0,0.0,0.0,92,0.00,CLR,,0.00,WeatherDisplay:10.37,2013-07-08 09:07:00,
2013-07-08 04:12:00,71.4,69.0,30.03,North,0,0.0,0.0,92,0.00,CLR,,0.00,WeatherDisplay:10.37,2013-07-08 09:12:00,
2013-07-08 04:17:00,71.4,69.0,30.03,North,0,0.0,0.0,92,0.00,CLR,,0.00,WeatherDisplay:10.37,2013-07-08 09:17:00,
2013-07-08 04:22:00,71.2,68.5,30.03,North,0,0.0,0.0,91,0.00,CLR,,0.00,WeatherDisplay:10.37,2013-07-08 09:22:00,
2013-07-08 04:27:00,71.2,68.8,30.03,North,0,0.0,0.0,92,0.00,CLR,,0.00,WeatherDisplay:10.37,2013-07-08 09:27:00,
2013-07-08 04:32:00,71.2,68.8,30.06,North,0,0.0,0.0,92,0.00,CLR,,0.00,WeatherDisplay:10.37,2013-07-08 09:32:00,
2013-07-08 04:37:00,71.2,68.8,30.06,North,0,0.0,0.0,92,0.00,CLR,,0.00,WeatherDisplay:10.37,2013-07-08 09:37:00,
2013-07-08 04:42:00,71.2,68.8,30.06,North,0,0.0,0.0,92,0.00,CLR,,0.00,WeatherDisplay:10.37,2013-07-08 09:42:00,
2013-07-08 04:47:00,71.2,68.8,30.06,North,0,0.0,0.0,92,0.00,CLR,,0.00,WeatherDisplay:10.37,2013-07-08 09:47:00,
2013-07-08 04:52:00,71.2,68.8,30.06,North,0,0.0,0.0,92,0.00,CLR,,0.00,WeatherDisplay:10.37,2013-07-08 09:52:00,
2013-07-08 04:57:00,71.1,68.6,30.06,NNW,338,0.0,0.0,92,0.00,CLR,,0.00,WeatherDisplay:10.37,2013-07-08 09:57:00,
2013-07-08 05:02:00,71.1,68.6,30.06,North,0,1.4,1.4,92,0.00,CLR,,0.00,WeatherDisplay:10.37,2013-07-08 10:02:00,
2013-07-08 05:07:00,70.9,68.4,30.06,North,0,0.0,0.0,92,0.00,CLR,,0.00,WeatherDisplay:10.37,2013-07-08 10:07:00,
2013-07-08 05:12:00,70.9,68.4,30.06,North,0,0.0,0.0,92,0.00,CLR,,0.00,WeatherDisplay:10.37,2013-07-08 10:12:00,
2013-07-08 05:17:00,70.7,68.3,30.06,North,0,0.0,0.0,92,0.00,CLR,,0.00,WeatherDisplay:10.37,2013-07-08 10:17:00,
2013-07-08 05:22:00,70.7,68.3,30.06,North,0,0.0,0.0,92,0.00,CLR,,0.00,WeatherDisplay:10.37,2013-07-08 10:22:00,
2013-07-08 05:27:00,70.7,68.3,30.06,North,0,0.0,0.0,92,0.00,CLR,,0.00,WeatherDisplay:10.37,2013-07-08 10:27:00,
2013-07-08 05:32:00,70.7,68.3,30.06,North,0,0.0,0.0,92,0.00,CLR,,0.00,WeatherDisplay:10.37,2013-07-08 10:32:00,
2013-07-08 05:37:00,70.7,68.3,30.06,North,0,0.0,0.0,92,0.00,CLR,,0.00,WeatherDisplay:10.37,2013-07-08 10:37:00,
2013-07-08 05:42:00,70.9,68.8,30.06,North,0,0.0,0.0,93,0.00,CLR,,0.00,WeatherDisplay:10.37,2013-07-08 10:42:00,
2013-07-08 05:47:00,70.7,68.3,30.06,North,0,0.0,0.0,92,0.00,CLR,,0.00,WeatherDisplay:10.37,2013-07-08 10:47:00,
2013-07-08 05:52:00,70.5,68.1,30.06,North,0,0.0,0.0,92,0.00,CLR,,0.00,WeatherDisplay:10.37,2013-07-08 10:52:00,
2013-07-08 05:57:00,70.5,68.1,30.06,North,0,0.0,0.0,92,0.00,CLR,,0.00,WeatherDisplay:10.37,2013-07-08 10:57:00,
2013-07-08 06:02:00,70.5,68.1,30.06,NNW,338,0.0,0.0,92,0.00,CLR,,0.00,WeatherDisplay:10.37,2013-07-08 11:02:00,
2013-07-08 06:07:00,70.7,68.6,30.06,NNW,338,0.0,0.0,93,0.00,CLR,,0.00,WeatherDisplay:10.37,2013-07-08 11:07:00,
2013-07-08 06:12:00,70.7,68.6,30.06,NNW,338,0.0,0.0,93,0.00,CLR,,0.00,WeatherDisplay:10.37,2013-07-08 11:12:00,
2013-07-08 06:17:00,70.7,68.6,30.09,NNW,338,0.0,0.0,93,0.00,CLR,,0.00,WeatherDisplay:10.37,2013-07-08 11:17:00,
2013-07-08 06:22:00,70.7,68.6,30.09,NNW,338,0.0,0.0,93,0.00,CLR,,0.00,WeatherDisplay:10.37,2013-07-08 11:22:00,
2013-07-08 06:27:00,70.7,68.6,30.09,NNW,338,0.0,0.0,93,0.00,CLR,,0.00,WeatherDisplay:10.37,2013-07-08 11:27:00,
2013-07-08 06:32:00,70.9,68.8,30.09,NNW,338,0.0,0.0,93,0.00,CLR,,0.00,WeatherDisplay:10.37,2013-07-08 11:32:00,
2013-07-08 06:37:00,71.4,69.3,30.09,NNW,338,0.0,0.0,93,0.00,CLR,,0.00,WeatherDisplay:10.37,2013-07-08 11:37:00,
2013-07-08 06:42:00,73.0,71.2,30.09,NNW,338,0.0,0.0,94,0.00,CLR,,0.00,WeatherDisplay:10.37,2013-07-08 11:42:00,
2013-07-08 06:47:00,73.6,71.4,30.09,NNW,338,0.0,0.0,93,0.00,CLR,,0.00,WeatherDisplay:10.37,2013-07-08 11:47:00,
2013-07-08 06:52:00,73.8,71.6,30.09,NNW,338,0.0,0.0,93,0.00,CLR,,0.00,WeatherDisplay:10.37,2013-07-08 11:52:00,
2013-07-08 06:57:00,73.9,71.5,30.09,North,0,2.0,0.0,92,0.00,CLR,,0.00,WeatherDisplay:10.37,2013-07-08 11:57:00,
2013-07-08 07:02:00,73.9,71.1,30.09,North,0,0.0,0.0,91,0.00,CLR,,0.00,WeatherDisplay:10.37,2013-07-08 12:02:00,
2013-07-08 07:07:00,74.1,71.3,30.09,North,0,1.1,1.4,91,0.00,CLR,,0.00,WeatherDisplay:10.37,2013-07-08 12:07:00,
2013-07-08 07:12:00,73.9,70.8,30.09,NNE,22,0.0,0.0,90,0.00,CLR,,0.00,WeatherDisplay:10.37,2013-07-08 12:12:00,
2013-07-08 07:17:00,73.9,70.8,30.09,North,0,0.0,0.0,90,0.00,CLR,,0.00,WeatherDisplay:10.37,2013-07-08 12:17:00,
2013-07-08 07:22:00,73.9,70.8,30.09,North,0,0.0,0.0,90,0.00,CLR,,0.00,WeatherDisplay:10.37,2013-07-08 12:22:00,
2013-07-08 07:27:00,73.9,70.8,30.09,SE,135,0.0,0.0,90,0.00,CLR,,0.00,WeatherDisplay:10.37,2013-07-08 12:27:00,
2013-07-08 07:32:00,74.1,71.0,30.09,NNE,22,0.0,0.0,90,0.00,CLR,,0.00,WeatherDisplay:10.37,2013-07-08 12:32:00,
2013-07-08 07:37:00,74.3,71.2,30.09,NNW,338,2.3,2.3,90,0.00,CLR,,0.00,WeatherDisplay:10.37,2013-07-08 12:37:00,
2013-07-08 07:42:00,74.5,71.4,30.09,NNW,338,0.0,0.0,90,0.00,CLR,,0.00,WeatherDisplay:10.37,2013-07-08 12:42:00,
2013-07-08 07:47:00,74.8,71.7,30.09,SE,135,0.0,0.0,90,0.00,CLR,,0.00,WeatherDisplay:10.37,2013-07-08 12:47:00,
2013-07-08 07:52:00,75.2,72.1,30.09,South,180,2.3,2.3,90,0.00,CLR,,0.00,WeatherDisplay:10.37,2013-07-08 12:52:00,
2013-07-08 07:57:00,75.6,72.4,30.09,South,180,1.1,0.0,90,0.00,CLR,,0.00,WeatherDisplay:10.37,2013-07-08 12:57:00,
2013-07-08 08:03:00,75.9,72.8,30.09,South,180,0.0,0.0,90,0.00,CLR,,0.00,WeatherDisplay:10.37,2013-07-08 13:03:00,
2013-07-08 08:08:00,76.3,73.1,30.09,South,180,0.0,0.0,90,0.00,CLR,,0.00,WeatherDisplay:10.37,2013-07-08 13:08:00,
2013-07-08 08:13:00,77.0,73.5,30.09,North,0,1.1,1.4,89,0.00,CLR,,0.00,WeatherDisplay:10.37,2013-07-08 13:13:00,
2013-07-08 08:18:00,77.5,73.7,30.12,North,0,2.3,2.3,88,0.00,CLR,,0.00,WeatherDisplay:10.37,2013-07-08 13:18:00,
2013-07-08 08:23:00,78.3,74.4,30.12,North,0,1.1,1.1,88,0.00,CLR,,0.00,WeatherDisplay:10.37,2013-07-08 13:23:00,
2013-07-08 08:28:00,79.2,75.0,30.12,North,0,2.3,0.0,87,0.00,CLR,,0.00,WeatherDisplay:10.37,2013-07-08 13:28:00,
2013-07-08 08:33:00,80.4,76.2,30.12,SSE,158,1.6,0.0,87,0.00,CLR,,0.00,WeatherDisplay:10.37,2013-07-08 13:33:00,
2013-07-08 08:38:00,81.3,76.4,30.12,SSE,158,1.6,0.0,85,0.00,CLR,,0.00,WeatherDisplay:10.37,2013-07-08 13:38:00,
2013-07-08 08:43:00,82.6,76.9,30.12,South,180,2.3,2.3,83,0.00,CLR,,0.00,WeatherDisplay:10.37,2013-07-08 13:43:00,
2013-07-08 08:48:00,84.0,77.6,30.12,South,180,2.3,2.3,81,0.00,CLR,,0.00,WeatherDisplay:10.37,2013-07-08 13:48:00,
2013-07-08 08:53:00,85.1,77.8,30.12,SSE,158,1.1,1.1,79,0.00,CLR,,0.00,WeatherDisplay:10.37,2013-07-08 13:53:00,
2013-07-08 08:58:00,85.8,76.6,30.12,SSW,202,0.0,0.0,74,0.00,CLR,,0.00,WeatherDisplay:10.37,2013-07-08 13:58:00,
2013-07-08 09:03:00,85.8,76.2,30.12,South,180,2.4,2.4,73,0.00,CLR,,0.00,WeatherDisplay:10.37,2013-07-08 14:03:00,
2013-07-08 09:08:00,86.4,76.3,30.12,SSE,158,2.3,2.3,72,0.00,CLR,,0.00,WeatherDisplay:10.37,2013-07-08 14:08:00,
2013-07-08 09:13:00,86.4,74.1,30.12,SSE,158,1.1,1.1,67,0.00,CLR,,0.00,WeatherDisplay:10.37,2013-07-08 14:13:00,
2013-07-08 09:18:00,86.4,73.2,30.12,SSE,158,1.1,0.0,65,0.00,CLR,,0.00,WeatherDisplay:10.37,2013-07-08 14:18:00,
2013-07-08 09:23:00,86.7,73.1,30.12,South,180,2.3,2.3,64,0.00,CLR,,0.00,WeatherDisplay:10.37,2013-07-08 14:23:00,
2013-07-08 09:28:00,87.1,73.0,30.12,SE,135,2.3,2.3,63,0.00,CLR,,0.00,WeatherDisplay:10.37,2013-07-08 14:28:00,
2013-07-08 09:33:00,87.4,72.3,30.12,NW,315,1.1,1.1,61,0.00,CLR,,0.00,WeatherDisplay:10.37,2013-07-08 14:33:00,
2013-07-08 09:38:00,87.3,71.2,30.12,South,180,2.9,2.9,59,0.00,CLR,,0.00,WeatherDisplay:10.37,2013-07-08 14:38:00,
2013-07-08 09:43:00,87.3,70.7,30.12,South,180,2.3,2.3,58,0.00,CLR,,0.00,WeatherDisplay:10.37,2013-07-08 14:43:00,
2013-07-08 09:48:00,87.6,70.0,30.15,SSE,158,1.1,0.0,56,0.00,CLR,,0.00,WeatherDisplay:10.37,2013-07-08 14:48:00,
2013-07-08 09:53:00,87.8,69.6,30.15,SSE,158,2.3,0.0,55,0.00,CLR,,0.00,WeatherDisplay:10.37,2013-07-08 14:53:00,
2013-07-08 09:58:00,88.2,70.0,30.12,SE,135,2.3,0.0,55,0.00,CLR,,0.00,WeatherDisplay:10.37,2013-07-08 14:58:00,
2013-07-08 10:03:00,88.7,69.9,30.12,NNW,338,2.3,2.3,54,0.00,CLR,,0.00,WeatherDisplay:10.37,2013-07-08 15:03:00,
2013-07-08 10:08:00,88.5,68.1,30.12,SE,135,2.4,2.4,51,0.00,CLR,,0.00,WeatherDisplay:10.37,2013-07-08 15:08:00,
2013-07-08 10:13:00,88.7,69.4,30.12,South,180,3.5,3.5,53,0.00,CLR,,0.00,WeatherDisplay:10.37,2013-07-08 15:13:00,
2013-07-08 10:18:00,89.4,69.5,30.12,SSE,158,2.9,2.9,52,0.00,CLR,,0.00,WeatherDisplay:10.37,2013-07-08 15:18:00,
2013-07-08 10:23:00,89.8,68.7,30.12,South,180,4.3,4.3,50,0.00,CLR,,0.00,WeatherDisplay:10.37,2013-07-08 15:23:00,
2013-07-08 10:28:00,90.1,68.4,30.12,SE,135,3.5,3.5,49,0.00,CLR,,0.00,WeatherDisplay:10.37,2013-07-08 15:28:00,
2013-07-08 10:33:00,90.3,68.6,30.12,SSE,158,5.8,5.8,49,0.00,CLR,,0.00,WeatherDisplay:10.37,2013-07-08 15:33:00,
2013-07-08 10:38:00,91.4,68.3,30.12,ESE,112,3.5,3.5,47,0.00,CLR,,0.00,WeatherDisplay:10.37,2013-07-08 15:38:00,
2013-07-08 10:43:00,92.8,69.6,30.12,SSE,158,3.5,3.5,47,0.00,CLR,,0.00,WeatherDisplay:10.37,2013-07-08 15:43:00,
2013-07-08 10:48:00,95.2,69.8,30.12,SE,135,4.6,4.6,44,0.00,CLR,,0.00,WeatherDisplay:10.37,2013-07-08 15:48:00,
2013-07-08 10:53:00,96.4,68.2,30.12,South,180,3.1,3.1,40,0.00,CLR,,0.00,WeatherDisplay:10.37,2013-07-08 15:53:00,
2013-07-08 10:58:00,97.9,68.0,30.12,South,180,5.9,5.9,38,0.00,CLR,,0.00,WeatherDisplay:10.37,2013-07-08 15:58:00,
2013-07-08 11:03:00,99.0,66.5,30.12,SSE,158,4.6,4.6,35,0.00,CLR,,0.00,WeatherDisplay:10.37,2013-07-08 16:03:00,
2013-07-08 11:08:00,99.7,64.6,30.12,ESE,112,3.5,3.5,32,0.00,CLR,,0.00,WeatherDisplay:10.37,2013-07-08 16:08:00,
2013-07-08 11:13:00,99.7,62.7,30.12,SSE,158,5.9,5.9,30,0.00,CLR,,0.00,WeatherDisplay:10.37,2013-07-08 16:13:00,
2013-07-08 11:18:00,99.5,63.5,30.12,South,180,5.4,5.4,31,0.00,CLR,,0.00,WeatherDisplay:10.37,2013-07-08 16:18:00,
2013-07-08 11:23:00,100.4,63.3,30.12,SSE,158,3.5,3.5,30,0.00,CLR,,0.00,WeatherDisplay:10.37,2013-07-08 16:23:00,
2013-07-08 11:28:00,100.8,61.7,30.09,SSE,158,5.9,5.9,28,0.00,CLR,,0.00,WeatherDisplay:10.37,2013-07-08 16:28:00,
2013-07-08 11:33:00,101.1,61.0,30.09,SSW,202,4.6,4.6,27,0.00,CLR,,0.00,WeatherDisplay:10.37,2013-07-08 16:33:00,
2013-07-08 11:38:00,101.7,61.4,30.09,SSW,202,5.8,5.8,27,0.00,CLR,,0.00,WeatherDisplay:10.37,2013-07-08 16:38:00,
2013-07-08 11:43:00,102.0,61.7,30.09,South,180,5.8,5.8,27,0.00,CLR,,0.00,WeatherDisplay:10.37,2013-07-08 16:43:00,
2013-07-08 11:48:00,101.7,60.4,30.09,SSE,158,4.6,4.6,26,0.00,CLR,,0.00,WeatherDisplay:10.37,2013-07-08 16:48:00,
2013-07-08 11:53:00,101.3,59.0,30.09,South,180,6.2,6.2,25,0.00,CLR,,0.00,WeatherDisplay:10.37,2013-07-08 16:53:00,
2013-07-08 11:58:00,101.8,61.6,30.09,ESE,112,4.6,4.6,27,0.00,CLR,,0.00,WeatherDisplay:10.37,2013-07-08 16:58:00,
2013-07-08 12:03:00,101.5,60.2,30.09,ESE,112,4.6,4.6,26,0.00,CLR,,0.00,WeatherDisplay:10.37,2013-07-08 17:03:00,
2013-07-08 12:08:00,101.5,59.1,30.09,SSE,158,3.5,3.5,25,0.00,CLR,,0.00,WeatherDisplay:10.37,2013-07-08 17:08:00,
2013-07-08 12:14:00,100.0,57.9,30.09,ESE,112,2.3,2.3,25,0.00,CLR,,0.00,WeatherDisplay:10.37,2013-07-08 17:14:00,
2013-07-08 12:19:00,99.7,57.6,30.09,South,180,4.6,4.6,25,0.00,CLR,,0.00,WeatherDisplay:10.37,2013-07-08 17:19:00,
2013-07-08 12:24:00,100.8,59.6,30.09,SSE,158,7.4,7.4,26,0.00,CLR,,0.00,WeatherDisplay:10.37,2013-07-08 17:24:00,
2013-07-08 12:29:00,100.4,58.2,30.09,South,180,3.5,3.5,25,0.00,CLR,,0.00,WeatherDisplay:10.37,2013-07-08 17:29:00,
2013-07-08 12:34:00,99.9,58.8,30.09,South,180,4.6,4.6,26,0.00,CLR,,0.00,WeatherDisplay:10.37,2013-07-08 17:34:00,
2013-07-08 12:39:00,100.9,59.8,30.09,SSW,202,4.6,4.6,26,0.00,CLR,,0.00,WeatherDisplay:10.37,2013-07-08 17:39:00,
2013-07-08 12:44:00,99.7,55.3,30.09,South,180,3.1,3.1,23,0.00,CLR,,0.00,WeatherDisplay:10.37,2013-07-08 17:44:00,
2013-07-08 12:49:00,98.8,57.9,30.09,South,180,3.5,3.5,26,0.00,CLR,,0.00,WeatherDisplay:10.37,2013-07-08 17:49:00,
2013-07-08 12:54:00,100.0,60.1,30.09,South,180,4.6,4.6,27,0.00,CLR,,0.00,WeatherDisplay:10.37,2013-07-08 17:54:00,
2013-07-08 13:00:00,100.4,59.3,30.06,South,180,3.5,3.5,26,0.00,CLR,,0.00,WeatherDisplay:10.37,2013-07-08 18:00:00,
2013-07-08 13:05:00,99.7,58.7,30.06,South,180,4.6,4.6,26,0.00,CLR,,0.00,WeatherDisplay:10.37,2013-07-08 18:05:00,
2013-07-08 13:10:00,99.1,58.2,30.06,South,180,5.8,5.8,26,0.00,CLR,,0.00,WeatherDisplay:10.37,2013-07-08 18:10:00,
2013-07-08 13:16:00,99.5,58.5,30.09,South,180,3.6,3.6,26,0.00,CLR,,0.00,WeatherDisplay:10.37,2013-07-08 18:16:00,
2013-07-08 13:21:00,99.7,59.8,30.09,SSW,202,4.6,4.6,27,0.00,CLR,,0.00,WeatherDisplay:10.37,2013-07-08 18:21:00,
2013-07-08 13:26:00,98.1,58.4,30.09,SSW,202,4.6,4.6,27,0.00,CLR,,0.00,WeatherDisplay:10.37,2013-07-08 18:26:00,
2013-07-08 13:32:00,96.6,57.2,30.09,South,180,4.6,4.6,27,0.00,CLR,,0.00,WeatherDisplay:10.37,2013-07-08 18:32:00,
2013-07-08 13:37:00,96.3,57.9,30.09,South,180,4.6,4.6,28,0.00,CLR,,0.00,WeatherDisplay:10.37,2013-07-08 18:37:00,
2013-07-08 13:42:00,95.9,57.6,30.09,SSE,158,4.3,4.3,28,0.00,CLR,,0.00,WeatherDisplay:10.37,2013-07-08 18:42:00,
2013-07-08 13:48:00,94.6,56.5,30.09,South,180,6.9,6.9,28,0.00,CLR,,0.00,WeatherDisplay:10.37,2013-07-08 18:48:00,
2013-07-08 13:53:00,93.9,57.8,30.09,SSW,202,5.9,5.9,30,0.00,CLR,,0.00,WeatherDisplay:10.37,2013-07-08 18:53:00,
2013-07-08 13:58:00,94.6,60.2,30.09,South,180,5.8,5.8,32,0.00,CLR,,0.00,WeatherDisplay:10.37,2013-07-08 18:58:00,
2013-07-08 14:04:00,95.2,60.7,30.09,SSE,158,5.8,5.8,32,0.00,CLR,,0.00,WeatherDisplay:10.37,2013-07-08 19:04:00,
2013-07-08 14:09:00,95.2,59.8,30.09,South,180,6.9,6.9,31,0.00,CLR,,0.00,WeatherDisplay:10.37,2013-07-08 19:09:00,
2013-07-08 14:14:00,95.5,58.2,30.06,South,180,4.6,4.6,29,0.00,CLR,,0.00,WeatherDisplay:10.37,2013-07-08 19:14:00,
2013-07-08 14:19:00,95.4,57.1,30.06,South,180,3.8,3.8,28,0.00,CLR,,0.00,WeatherDisplay:10.37,2013-07-08 19:19:00,
2013-07-08 14:24:00,95.4,56.1,30.06,South,180,2.3,2.9,27,0.00,CLR,,0.00,WeatherDisplay:10.37,2013-07-08 19:24:00,
2013-07-08 14:30:00,95.7,57.4,30.06,South,180,3.5,3.5,28,0.00,CLR,,0.00,WeatherDisplay:10.37,2013-07-08 19:30:00,
2013-07-08 14:35:00,95.7,57.4,30.06,South,180,3.5,3.5,28,0.00,CLR,,0.00,WeatherDisplay:10.37,2013-07-08 19:35:00,
2013-07-08 14:40:00,95.7,57.4,30.06,South,180,3.5,3.5,28,0.00,CLR,,0.00,WeatherDisplay:10.37,2013-07-08 19:40:00,
2013-07-08 14:46:00,95.4,56.1,30.06,South,180,4.9,4.9,27,0.00,CLR,,0.00,WeatherDisplay:10.37,2013-07-08 19:46:00,
2013-07-08 14:51:00,95.2,54.9,30.06,South,180,4.6,4.6,26,0.00,CLR,,0.00,WeatherDisplay:10.37,2013-07-08 19:51:00,
2013-07-08 14:56:00,95.2,56.9,30.06,South,180,4.6,4.6,28,0.00,CLR,,0.00,WeatherDisplay:10.37,2013-07-08 19:56:00,
2013-07-08 15:02:00,95.0,55.8,30.06,South,180,3.1,3.1,27,0.00,CLR,,0.00,WeatherDisplay:10.37,2013-07-08 20:02:00,
2013-07-08 15:07:00,95.0,56.8,30.06,SE,135,4.6,4.6,28,0.00,CLR,,0.00,WeatherDisplay:10.37,2013-07-08 20:07:00,
2013-07-08 15:12:00,94.5,56.3,30.06,South,180,2.3,2.4,28,0.00,CLR,,0.00,WeatherDisplay:10.37,2013-07-08 20:12:00,
2013-07-08 15:17:00,94.1,56.0,30.06,South,180,4.6,4.6,28,0.00,CLR,,0.00,WeatherDisplay:10.37,2013-07-08 20:17:00,
2013-07-08 15:23:00,93.7,55.7,30.06,SSW,202,3.5,3.5,28,0.00,CLR,,0.00,WeatherDisplay:10.37,2013-07-08 20:23:00,
2013-07-08 15:28:00,93.2,56.2,30.03,SE,135,6.9,6.9,29,0.00,CLR,,0.00,WeatherDisplay:10.37,2013-07-08 20:28:00,
2013-07-08 15:35:00,92.3,57.3,30.03,SSW,202,5.8,5.8,31,0.00,CLR,,0.00,WeatherDisplay:10.37,2013-07-08 20:35:00,
2013-07-08 15:40:00,92.1,57.1,30.03,South,180,6.9,6.9,31,0.00,CLR,,0.00,WeatherDisplay:10.37,2013-07-08 20:40:00,
2013-07-08 15:45:00,91.6,57.6,30.06,South,180,7.4,7.4,32,0.00,CLR,,0.00,WeatherDisplay:10.37,2013-07-08 20:45:00,
2013-07-08 15:51:00,91.0,57.9,30.06,SSE,158,5.8,5.8,33,0.00,CLR,,0.00,WeatherDisplay:10.37,2013-07-08 20:51:00,
2013-07-08 15:57:00,90.9,57.8,30.06,South,180,4.6,4.6,33,0.00,CLR,,0.00,WeatherDisplay:10.37,2013-07-08 20:57:00,
2013-07-08 16:03:00,90.7,57.6,30.03,South,180,7.6,7.6,33,0.00,CLR,,0.00,WeatherDisplay:10.37,2013-07-08 21:03:00,
2013-07-08 16:08:00,90.5,57.5,30.03,SSW,202,6.9,6.9,33,0.00,CLR,,0.00,WeatherDisplay:10.37,2013-07-08 21:08:00,
2013-07-08 16:13:00,90.5,58.3,30.03,South,180,8.5,8.5,34,0.00,CLR,,0.00,WeatherDisplay:10.37,2013-07-08 21:13:00,
2013-07-08 16:18:00,91.2,60.5,30.03,SW,225,10.4,10.4,36,0.00,CLR,,0.00,WeatherDisplay:10.37,2013-07-08 21:18:00,
2013-07-08 16:24:00,90.7,60.1,30.03,South,180,11.5,11.5,36,0.00,CLR,,0.00,WeatherDisplay:10.37,2013-07-08 21:24:00,
2013-07-08 16:29:00,89.8,59.3,30.03,SE,135,6.2,7.6,36,0.00,CLR,,0.00,WeatherDisplay:10.37,2013-07-08 21:29:00,
2013-07-08 16:34:00,88.3,58.0,30.03,SE,135,5.9,5.9,36,0.00,CLR,,0.00,WeatherDisplay:10.37,2013-07-08 21:34:00,
2013-07-08 16:39:00,86.4,57.8,30.03,SSE,158,5.8,5.8,38,0.00,CLR,,0.00,WeatherDisplay:10.37,2013-07-08 21:39:00,
2013-07-08 16:45:00,85.1,58.8,30.06,SE,135,4.6,4.6,41,0.00,CLR,,0.00,WeatherDisplay:10.37,2013-07-08 21:45:00,
2013-07-08 16:50:00,83.8,60.8,30.06,South,180,5.8,5.8,46,0.00,CLR,,0.00,WeatherDisplay:10.37,2013-07-08 21:50:00,
2013-07-08 16:56:00,82.2,61.2,30.06,SE,135,6.0,6.0,49,0.00,CLR,,0.00,WeatherDisplay:10.37,2013-07-08 21:56:00,
2013-07-08 17:01:00,81.0,62.2,30.06,North,0,1.1,2.2,53,0.00,CLR,,0.00,WeatherDisplay:10.37,2013-07-08 22:01:00,
2013-07-08 17:06:00,79.9,63.3,30.06,NNW,338,3.5,3.5,57,0.00,CLR,,0.00,WeatherDisplay:10.37,2013-07-08 22:06:00,
2013-07-08 17:12:00,79.0,64.8,30.06,South,180,2.3,2.3,62,0.00,CLR,,0.00,WeatherDisplay:10.37,2013-07-08 22:12:00,
2013-07-08 17:17:00,79.2,65.5,30.09,South,180,1.4,1.4,63,0.00,CLR,,0.00,WeatherDisplay:10.37,2013-07-08 22:17:00,
2013-07-08 17:23:00,79.2,67.3,30.09,South,180,4.6,4.6,67,0.00,CLR,,0.00,WeatherDisplay:10.37,2013-07-08 22:23:00,
2013-07-08 17:28:00,79.0,67.5,30.06,SSE,158,4.6,4.6,68,0.00,CLR,,0.00,WeatherDisplay:10.37,2013-07-08 22:28:00,
2013-07-08 17:33:00,78.3,67.7,30.06,SSW,202,3.1,3.1,70,0.03,RA,,0.03,WeatherDisplay:10.37,2013-07-08 22:33:00,
2013-07-08 17:38:00,77.9,68.5,30.06,SSE,158,6.9,6.9,73,0.03,RA,,0.03,WeatherDisplay:10.37,2013-07-08 22:38:00,
2013-07-08 17:44:00,77.5,68.2,30.06,ESE,112,5.8,5.8,73,0.03,,,0.03,WeatherDisplay:10.37,2013-07-08 22:44:00,
2013-07-08 17:49:00,77.4,68.4,30.06,SSE,158,2.3,2.3,74,0.03,CLR,,0.03,WeatherDisplay:10.37,2013-07-08 22:49:00,
2013-07-08 17:57:00,77.2,68.2,30.06,SSE,158,3.1,3.1,74,0.03,CLR,,0.03,WeatherDisplay:10.37,2013-07-08 22:57:00,
2013-07-08 18:02:00,77.2,69.0,30.06,SSE,158,5.8,5.8,76,0.03,CLR,,0.03,WeatherDisplay:10.37,2013-07-08 23:02:00,
2013-07-08 18:08:00,77.2,69.0,30.06,SSE,158,4.6,4.6,76,0.03,CLR,,0.03,WeatherDisplay:10.37,2013-07-08 23:08:00,
2013-07-08 18:14:00,77.2,69.4,30.09,South,180,5.8,5.8,77,0.03,CLR,,0.03,WeatherDisplay:10.37,2013-07-08 23:14:00,
2013-07-08 18:19:00,77.0,69.2,30.09,SSE,158,3.6,3.6,77,0.03,CLR,,0.03,WeatherDisplay:10.37,2013-07-08 23:19:00,
2013-07-08 18:24:00,77.0,69.2,30.09,SSE,158,3.5,3.5,77,0.03,CLR,,0.03,WeatherDisplay:10.37,2013-07-08 23:24:00,
2013-07-08 18:30:00,77.0,69.6,30.06,South,180,2.4,2.4,78,0.03,CLR,,0.03,WeatherDisplay:10.37,2013-07-08 23:30:00,
2013-07-08 18:35:00,77.0,69.6,30.06,SSE,158,2.9,2.9,78,0.00,CLR,,0.03,WeatherDisplay:10.37,2013-07-08 23:35:00,
2013-07-08 18:41:00,77.0,70.0,30.06,SSW,202,3.5,3.5,79,0.00,CLR,,0.03,WeatherDisplay:10.37,2013-07-08 23:41:00,
2013-07-08 18:46:00,77.0,70.0,30.09,South,180,3.5,3.5,79,0.00,CLR,,0.03,WeatherDisplay:10.37,2013-07-08 23:46:00,
2013-07-08 18:52:00,77.2,70.2,30.09,South,180,2.3,2.3,79,0.00,CLR,,0.03,WeatherDisplay:10.37,2013-07-08 23:52:00,
2013-07-08 18:57:00,77.2,70.2,30.09,SSE,158,2.3,2.3,79,0.00,CLR,,0.03,WeatherDisplay:10.37,2013-07-08 23:57:00,
2013-07-08 19:02:00,77.4,70.7,30.12,SSE,158,3.6,3.6,80,0.00,CLR,,0.03,WeatherDisplay:10.37,2013-07-09 00:02:00,
2013-07-08 19:07:00,77.4,70.7,30.12,South,180,3.5,3.5,80,0.00,CLR,,0.03,WeatherDisplay:10.37,2013-07-09 00:07:00,
2013-07-08 19:13:00,77.4,70.7,30.09,SSW,202,3.5,3.5,80,0.00,CLR,,0.03,WeatherDisplay:10.37,2013-07-09 00:13:00,
2013-07-08 19:19:00,77.4,71.1,30.09,SSW,202,2.9,2.9,81,0.00,CLR,,0.03,WeatherDisplay:10.37,2013-07-09 00:19:00,
2013-07-08 19:24:00,77.4,71.1,30.09,South,180,1.1,0.0,81,0.00,CLR,,0.03,WeatherDisplay:10.37,2013-07-09 00:24:00,
2013-07-08 19:29:00,77.4,70.7,30.09,SSE,158,2.3,2.3,80,0.00,CLR,,0.03,WeatherDisplay:10.37,2013-07-09 00:29:00,
2013-07-08 19:35:00,77.2,70.5,30.09,SW,225,2.3,2.3,80,0.00,CLR,,0.03,WeatherDisplay:10.37,2013-07-09 00:35:00,
2013-07-08 19:40:00,76.8,70.5,30.09,South,180,2.3,0.0,81,0.00,CLR,,0.03,WeatherDisplay:10.37,2013-07-09 00:40:00,
2013-07-08 19:45:00,76.6,70.7,30.09,SE,135,2.3,2.3,82,0.00,CLR,,0.03,WeatherDisplay:10.37,2013-07-09 00:45:00,
2013-07-08 19:51:00,76.6,71.1,30.09,South,180,2.3,2.3,83,0.00,CLR,,0.03,WeatherDisplay:10.37,2013-07-09 00:51:00,
2013-07-08 19:56:00,76.6,71.1,30.09,SSE,158,1.4,0.0,83,0.00,CLR,,0.03,WeatherDisplay:10.37,2013-07-09 00:56:00,
2013-07-08 20:02:00,76.5,70.6,30.09,NNW,338,2.3,2.3,82,0.00,CLR,,0.03,WeatherDisplay:10.37,2013-07-09 01:02:00,
2013-07-08 20:07:00,76.3,70.7,30.09,SSW,202,0.0,0.0,83,0.00,CLR,,0.03,WeatherDisplay:10.37,2013-07-09 01:07:00,
2013-07-08 20:12:00,76.5,71.3,30.09,SSW,202,0.0,0.0,84,0.00,CLR,,0.03,WeatherDisplay:10.37,2013-07-09 01:12:00,
2013-07-08 20:17:00,76.3,71.1,30.06,SSE,158,2.3,2.3,84,0.00,CLR,,0.03,WeatherDisplay:10.37,2013-07-09 01:17:00,
2013-07-08 20:22:00,76.3,71.1,30.06,SE,135,0.0,0.0,84,0.00,CLR,,0.03,WeatherDisplay:10.37,2013-07-09 01:22:00,
2013-07-08 20:27:00,76.3,71.1,30.06,NNW,338,0.0,0.0,84,0.00,CLR,,0.03,WeatherDisplay:10.37,2013-07-09 01:27:00,
2013-07-08 20:33:00,76.3,71.1,30.06,South,180,0.0,0.0,84,0.00,CLR,,0.03,WeatherDisplay:10.37,2013-07-09 01:33:00,
2013-07-08 20:38:00,76.1,70.9,30.06,SE,135,2.3,2.3,84,0.00,CLR,,0.03,WeatherDisplay:10.37,2013-07-09 01:38:00,
2013-07-08 20:44:00,75.9,70.7,30.06,SE,135,0.0,0.0,84,0.00,CLR,,0.03,WeatherDisplay:10.37,2013-07-09 01:44:00,
2013-07-08 20:49:00,75.9,70.7,30.06,North,0,1.1,1.1,84,0.00,CLR,,0.03,WeatherDisplay:10.37,2013-07-09 01:49:00,
2013-07-08 20:54:00,75.9,71.1,30.06,North,0,0.0,0.0,85,0.00,CLR,,0.03,WeatherDisplay:10.37,2013-07-09 01:54:00,
2013-07-08 21:00:00,75.7,70.9,30.06,SE,135,2.6,2.6,85,0.00,CLR,,0.03,WeatherDisplay:10.37,2013-07-09 02:00:00,
2013-07-08 21:05:00,75.7,70.9,30.06,ESE,112,1.1,1.1,85,0.00,CLR,,0.03,WeatherDisplay:10.37,2013-07-09 02:05:00,
2013-07-08 21:10:00,75.7,71.3,30.06,SSE,158,2.3,2.3,86,0.00,CLR,,0.03,WeatherDisplay:10.37,2013-07-09 02:10:00,
2013-07-08 21:15:00,75.7,71.3,30.09,SSE,158,1.1,1.1,86,0.00,CLR,,0.03,WeatherDisplay:10.37,2013-07-09 02:15:00,
2013-07-08 21:21:00,75.6,71.1,30.09,SSE,158,2.3,2.3,86,0.00,CLR,,0.03,WeatherDisplay:10.37,2013-07-09 02:21:00,
2013-07-08 21:26:00,75.6,71.1,30.09,South,180,2.3,2.3,86,0.00,CLR,,0.03,WeatherDisplay:10.37,2013-07-09 02:26:00,
2013-07-08 21:31:00,75.4,70.9,30.09,SSE,158,2.3,2.3,86,0.00,CLR,,0.03,WeatherDisplay:10.37,2013-07-09 02:31:00,
2013-07-08 21:37:00,75.4,70.9,30.09,SSE,158,3.5,3.5,86,0.00,CLR,,0.03,WeatherDisplay:10.37,2013-07-09 02:37:00,
2013-07-08 21:43:00,75.2,70.7,30.09,ESE,112,3.6,3.6,86,0.00,CLR,,0.03,WeatherDisplay:10.37,2013-07-09 02:43:00,
2013-07-08 21:48:00,75.2,70.7,30.06,ENE,68,3.5,3.5,86,0.00,CLR,,0.03,WeatherDisplay:10.37,2013-07-09 02:48:00,
2013-07-08 21:54:00,75.2,71.1,30.06,SSE,158,3.5,3.5,87,0.00,CLR,,0.03,WeatherDisplay:10.37,2013-07-09 02:54:00,
2013-07-08 21:59:00,75.2,71.1,30.09,SE,135,3.5,3.5,87,0.00,CLR,,0.03,WeatherDisplay:10.37,2013-07-09 02:59:00,
2013-07-08 22:04:00,75.0,70.9,30.09,South,180,1.1,1.1,87,0.00,CLR,,0.03,WeatherDisplay:10.37,2013-07-09 03:04:00,
2013-07-08 22:10:00,75.0,70.9,30.09,SE,135,2.3,2.3,87,0.00,CLR,,0.03,WeatherDisplay:10.37,2013-07-09 03:10:00,
2013-07-08 22:15:00,74.8,70.7,30.09,SSE,158,2.3,2.3,87,0.00,CLR,,0.03,WeatherDisplay:10.37,2013-07-09 03:15:00,
2013-07-08 22:20:00,74.8,70.7,30.09,South,180,0.0,0.0,87,0.00,CLR,,0.03,WeatherDisplay:10.37,2013-07-09 03:20:00,
2013-07-08 22:25:00,74.8,70.7,30.09,South,180,1.1,0.0,87,0.00,CLR,,0.03,WeatherDisplay:10.37,2013-07-09 03:25:00,
2013-07-08 22:30:00,74.7,70.5,30.09,South,180,0.0,0.0,87,0.00,CLR,,0.03,WeatherDisplay:10.37,2013-07-09 03:30:00,
2013-07-08 22:36:00,74.7,70.5,30.09,South,180,0.0,0.0,87,0.00,CLR,,0.03,WeatherDisplay:10.37,2013-07-09 03:36:00,
2013-07-08 22:41:00,74.7,70.5,30.09,South,180,0.0,0.0,87,0.00,CLR,,0.03,WeatherDisplay:10.37,2013-07-09 03:41:00,
2013-07-08 22:47:00,74.5,70.7,30.09,South,180,0.0,0.0,88,0.00,CLR,,0.03,WeatherDisplay:10.37,2013-07-09 03:47:00,
2013-07-08 22:53:00,74.5,70.7,30.09,South,180,0.0,0.0,88,0.00,CLR,,0.03,WeatherDisplay:10.37,2013-07-09 03:53:00,
2013-07-08 22:58:00,74.3,70.5,30.09,South,180,0.0,0.0,88,0.00,CLR,,0.03,WeatherDisplay:10.37,2013-07-09 03:58:00,
2013-07-08 23:01:00,74.3,70.5,30.09,South,180,0.0,0.0,88,0.00,CLR,,0.03,WeatherDisplay:10.37,2013-07-09 04:01:00,
2013-07-08 23:02:00,74.5,70.7,30.09,South,180,0.0,0.0,88,0.00,CLR,,0.03,WeatherDisplay:10.37,2013-07-09 04:02:00,
2013-07-08 23:07:00,74.3,70.5,30.09,South,180,0.0,0.0,88,0.00,CLR,,0.03,WeatherDisplay:10.37,2013-07-09 04:07:00,
2013-07-08 23:12:00,74.3,70.5,30.09,South,180,0.0,0.0,88,0.00,CLR,,0.03,WeatherDisplay:10.37,2013-07-09 04:12:00,
2013-07-08 23:17:00,74.3,70.5,30.09,NNW,338,1.1,0.0,88,0.00,CLR,,0.03,WeatherDisplay:10.37,2013-07-09 04:17:00,
2013-07-08 23:22:00,74.1,70.3,30.09,North,0,2.3,2.3,88,0.00,CLR,,0.03,WeatherDisplay:10.37,2013-07-09 04:22:00,
2013-07-08 23:27:00,74.1,70.7,30.09,North,0,0.0,0.0,89,0.00,CLR,,0.03,WeatherDisplay:10.37,2013-07-09 04:27:00,
2013-07-08 23:32:00,74.1,70.7,30.09,North,0,0.0,0.9,89,0.00,CLR,,0.03,WeatherDisplay:10.37,2013-07-09 04:32:00,
2013-07-08 23:37:00,73.9,70.5,30.09,North,0,1.1,1.4,89,0.00,CLR,,0.03,WeatherDisplay:10.37,2013-07-09 04:37:00,
2013-07-08 23:42:00,73.9,70.5,30.09,North,0,1.1,0.0,89,0.00,CLR,,0.03,WeatherDisplay:10.37,2013-07-09 04:42:00,
2013-07-08 23:47:00,73.9,70.5,30.09,North,0,2.3,0.0,89,0.00,CLR,,0.03,WeatherDisplay:10.37,2013-07-09 04:47:00,
2013-07-08 23:52:00,73.8,70.3,30.09,North,0,0.0,0.0,89,0.00,CLR,,0.03,WeatherDisplay:10.37,2013-07-09 04:52:00,
2013-07-08 23:57:00,73.8,70.3,30.09,SSE,158,0.0,0.0,89,0.00,CLR,,0.03,WeatherDisplay:10.37,2013-07-09 04:57:00,